Time;durP1;ratioP1;P1;durP2;ratioP2;P2;SDS_P1;SDS_P2;PMS_P1;PMS_P2;Temp;Humidity;BMP_temperature;BMP_pressure;BME280_temperature;BME280_humidity;BME280_pressure;Samples;Min_cycle;Max_cycle;Signal;HPM_P1;HPM_P2
2022/06/16 00:01:06;;;;;;;11.80;7.05;;;;;;;;;;5075183;28;20025;-71
2022/06/16 00:03:32;;;;;;;8.57;6.72;;;;;;;;;;5074982;28;20033;-67
2022/06/16 00:05:58;;;;;;;8.20;6.35;;;;;;;;;;5074967;28;20025;-68
2022/06/16 00:08:24;;;;;;;10.18;6.95;;;;;;;;;;5074878;28;20063;-73
2022/06/16 00:13:37;;;;;;;10.50;7.07;;;;;;;;;;5074873;28;20394;-69
2022/06/16 00:16:04;;;;;;;10.75;7.97;;;;;;;;;;5075022;28;20025;-66
2022/06/16 00:18:30;;;;;;;11.32;7.68;;;;;;;;;;5074622;28;20032;-69
2022/06/16 00:20:56;;;;;;;10.57;7.70;;;;;;;;;;5074551;28;20455;-67
2022/06/16 00:23:23;;;;;;;10.02;7.35;;;;;;;;;;5081789;28;20035;-66
2022/06/16 00:25:49;;;;;;;12.45;8.63;;;;;;;;;;5078599;28;20036;-75
2022/06/16 00:28:15;;;;;;;11.30;9.60;;;;;;;;;;5088978;28;20057;-67
2022/06/16 00:30:41;;;;;;;10.57;9.18;;;;;;;;;;5114376;28;20382;-70
2022/06/16 00:33:08;;;;;;;10.18;9.15;;;;;;;;;;5114847;28;20030;-69
2022/06/16 00:35:34;;;;;;;14.05;8.85;;;;;;;;;;5114776;28;20558;-73
2022/06/16 00:38:00;;;;;;;12.43;9.35;;;;;;;;;;5113543;28;20036;-73
2022/06/16 00:40:25;;;;;;;12.98;9.98;;;;;;;;;;5115001;28;20039;-70
2022/06/16 00:42:51;;;;;;;13.13;10.15;;;;;;;;;;5114849;28;20443;-69
2022/06/16 00:45:48;;;;;;;14.65;10.77;;;;;;;;;;5113145;28;20478;-72
2022/06/16 00:48:28;;;;;;;17.58;10.95;;;;;;;;;;5114940;28;20084;-73
2022/06/16 00:51:09;;;;;;;12.65;10.00;;;;;;;;;;5113716;28;20042;-68
2022/06/16 00:53:37;;;;;;;16.73;11.30;;;;;;;;;;5114951;28;20042;-71
2022/06/16 00:56:04;;;;;;;13.10;10.70;;;;;;;;;;5113024;28;20076;-73
2022/06/16 00:58:33;;;;;;;12.63;10.07;;;;;;;;;;5114377;28;20463;-75
2022/06/16 01:01:00;;;;;;;12.75;9.43;;;;;;;;;;5113548;28;20030;-67
2022/06/16 01:06:24;;;;;;;12.15;9.80;;;;;;;;;;5114344;28;20039;-74
2022/06/16 01:08:58;;;;;;;11.65;10.18;;;;;;;;;;5113222;28;20043;-74
2022/06/16 01:15:05;;;;;;;13.40;9.93;;;;;;;;;;5112998;28;20040;-68
2022/06/16 01:17:58;;;;;;;11.00;9.10;;;;;;;;;;5070503;28;20451;-72
2022/06/16 01:20:33;;;;;;;12.88;8.88;;;;;;;;;;5071086;28;20040;-70
2022/06/16 01:23:05;;;;;;;11.27;8.80;;;;;;;;;;5111967;27;20115;-69
2022/06/16 01:26:05;;;;;;;10.43;9.32;;;;;;;;;;5114215;28;20477;-70
2022/06/16 01:28:34;;;;;;;10.32;8.50;;;;;;;;;;5112593;28;20337;-73
2022/06/16 01:31:06;;;;;;;13.02;9.43;;;;;;;;;;5112437;28;20121;-73
2022/06/16 01:33:44;;;;;;;11.38;8.27;;;;;;;;;;5112506;28;20035;-68
2022/06/16 01:36:31;;;;;;;10.55;8.60;;;;;;;;;;5112283;28;20039;-70
2022/06/16 01:39:07;;;;;;;16.42;8.35;;;;;;;;;;5097656;28;20134;-67
2022/06/16 01:42:02;;;;;;;9.88;8.05;;;;;;;;;;5111864;28;20036;-65
2022/06/16 01:44:40;;;;;;;8.68;7.03;;;;;;;;;;5112555;28;20374;-72
2022/06/16 01:47:13;;;;;;;8.27;6.90;;;;;;;;;;5112492;28;20096;-65
2022/06/16 01:49:46;;;;;;;16.38;8.15;;;;;;;;;;5114953;28;20610;-68
2022/06/16 01:52:19;;;;;;;11.90;6.95;;;;;;;;;;5114177;28;20031;-66
2022/06/16 01:54:58;;;;;;;9.60;7.13;;;;;;;;;;5112286;28;20043;-66
2022/06/16 01:57:33;;;;;;;7.32;6.57;;;;;;;;;;5113617;28;20032;-71
2022/06/16 02:00:18;;;;;;;7.30;6.57;;;;;;;;;;5112282;28;20118;-67
2022/06/16 02:03:30;;;;;;;7.60;6.80;;;;;;;;;;5113278;28;20043;-67
2022/06/16 02:06:01;;;;;;;8.02;6.40;;;;;;;;;;5102730;28;20039;-72
2022/06/16 02:08:34;;;;;;;10.38;7.50;;;;;;;;;;5113244;28;20662;-70
2022/06/16 02:11:20;;;;;;;7.63;6.83;;;;;;;;;;5112840;28;20089;-67
2022/06/16 02:14:17;;;;;;;8.20;7.40;;;;;;;;;;5111433;28;20523;-69
2022/06/16 02:16:45;;;;;;;8.70;7.90;;;;;;;;;;5110693;28;20065;-69
2022/06/16 02:19:14;;;;;;;8.50;7.50;;;;;;;;;;5111685;28;20025;-74
2022/06/16 02:21:43;;;;;;;11.10;8.02;;;;;;;;;;5112836;28;20047;-71
2022/06/16 02:24:13;;;;;;;11.65;8.10;;;;;;;;;;5111504;28;20073;-69
2022/06/16 02:26:39;;;;;;;8.13;7.32;;;;;;;;;;5111375;28;20123;-69
2022/06/16 02:29:26;;;;;;;12.43;7.15;;;;;;;;;;5111543;28;20031;-69
2022/06/16 02:32:30;;;;;;;8.30;6.97;;;;;;;;;;5111487;28;20081;-75
2022/06/16 02:35:20;;;;;;;14.95;8.18;;;;;;;;;;5112554;28;20039;-69
2022/06/16 02:38:01;;;;;;;13.70;7.68;;;;;;;;;;5112571;28;20037;-70
2022/06/16 02:41:01;;;;;;;11.45;6.90;;;;;;;;;;5112658;28;20035;-76
2022/06/16 02:43:50;;;;;;;13.80;7.88;;;;;;;;;;5111198;28;20028;-75
2022/06/16 02:46:51;;;;;;;24.10;8.68;;;;;;;;;;5111179;28;20032;-66
2022/06/16 02:49:26;;;;;;;9.90;7.82;;;;;;;;;;5098204;28;20043;-66
2022/06/16 02:52:00;;;;;;;12.52;8.88;;;;;;;;;;5111183;28;20039;-74
2022/06/16 02:54:33;;;;;;;18.40;9.05;;;;;;;;;;5110850;28;20032;-74
2022/06/16 02:57:24;;;;;;;24.40;9.43;;;;;;;;;;5112455;28;20051;-76
2022/06/16 02:59:57;;;;;;;8.77;7.57;;;;;;;;;;5111247;28;20047;-71
2022/06/16 03:02:25;;;;;;;9.43;7.65;;;;;;;;;;5110928;28;20509;-69
2022/06/16 03:04:54;;;;;;;8.48;7.55;;;;;;;;;;5110880;28;20040;-73
2022/06/16 03:07:22;;;;;;;13.20;7.68;;;;;;;;;;5110719;28;20126;-71
2022/06/16 03:10:02;;;;;;;11.77;7.30;;;;;;;;;;5111101;28;20474;-69
2022/06/16 03:12:28;;;;;;;12.25;6.88;;;;;;;;;;5110905;28;20440;-66
2022/06/16 03:14:54;;;;;;;11.70;7.28;;;;;;;;;;5110685;28;20024;-67
2022/06/16 03:17:27;;;;;;;9.27;6.38;;;;;;;;;;5091008;28;20028;-67
2022/06/16 03:19:53;;;;;;;11.70;7.20;;;;;;;;;;5091979;28;20032;-69
2022/06/16 03:22:19;;;;;;;7.55;6.35;;;;;;;;;;5109070;28;20332;-66
2022/06/16 03:24:45;;;;;;;9.15;7.50;;;;;;;;;;5090116;28;20366;-74
2022/06/16 03:27:12;;;;;;;12.88;6.95;;;;;;;;;;5090215;28;20028;-70
2022/06/16 03:29:41;;;;;;;15.77;8.13;;;;;;;;;;5090406;28;20074;-68
2022/06/16 03:32:10;;;;;;;11.48;7.72;;;;;;;;;;5090392;28;20111;-70
2022/06/16 03:34:36;;;;;;;26.73;9.82;;;;;;;;;;5090489;28;20131;-72
2022/06/16 03:37:02;;;;;;;18.83;8.35;;;;;;;;;;5090332;28;20024;-66
2022/06/16 03:39:40;;;;;;;20.48;8.75;;;;;;;;;;5089144;28;20386;-68
2022/06/16 03:42:07;;;;;;;14.48;7.70;;;;;;;;;;5096235;28;20039;-66
2022/06/16 03:44:32;;;;;;;16.55;7.57;;;;;;;;;;5110611;28;20028;-66
2022/06/16 03:46:59;;;;;;;10.98;6.75;;;;;;;;;;5111815;28;20115;-65
2022/06/16 03:49:31;;;;;;;16.90;6.63;;;;;;;;;;5110561;28;20024;-67
2022/06/16 03:51:58;;;;;;;14.15;6.10;;;;;;;;;;5110027;28;20078;-68
2022/06/16 03:54:30;;;;;;;19.48;8.02;;;;;;;;;;5109888;28;20035;-68
2022/06/16 03:57:00;;;;;;;14.60;6.22;;;;;;;;;;5107594;28;20055;-70
2022/06/16 03:59:26;;;;;;;7.68;5.80;;;;;;;;;;5109344;28;20085;-65
2022/06/16 04:01:56;;;;;;;16.08;5.97;;;;;;;;;;5109674;28;20119;-65
2022/06/16 04:04:26;;;;;;;8.27;5.55;;;;;;;;;;5101261;28;20420;-69
2022/06/16 04:06:52;;;;;;;11.20;5.32;;;;;;;;;;5094968;28;20106;-74
2022/06/16 04:09:23;;;;;;;13.18;6.22;;;;;;;;;;5109999;28;20080;-72
2022/06/16 04:11:49;;;;;;;8.80;4.88;;;;;;;;;;5113814;28;20042;-74
2022/06/16 04:14:16;;;;;;;6.57;4.97;;;;;;;;;;5092768;28;20046;-72
2022/06/16 04:16:52;;;;;;;10.15;5.20;;;;;;;;;;5074507;28;20136;-71
2022/06/16 04:19:35;;;;;;;9.00;4.63;;;;;;;;;;5077661;28;20554;-70
2022/06/16 04:22:02;;;;;;;12.30;5.90;;;;;;;;;;5081212;28;20048;-72
2022/06/16 04:24:38;;;;;;;19.85;6.03;;;;;;;;;;5093278;28;20032;-68
2022/06/16 04:27:04;;;;;;;12.95;5.20;;;;;;;;;;5092429;28;20129;-72
2022/06/16 04:29:30;;;;;;;6.82;4.65;;;;;;;;;;5091881;28;20031;-71
2022/06/16 04:31:57;;;;;;;8.02;4.40;;;;;;;;;;5093619;28;20429;-68
2022/06/16 04:34:35;;;;;;;14.80;5.28;;;;;;;;;;5090522;28;20024;-76
2022/06/16 04:37:01;;;;;;;15.60;5.00;;;;;;;;;;5100455;28;20093;-72
2022/06/16 04:39:30;;;;;;;14.75;5.43;;;;;;;;;;5083209;28;20111;-77
2022/06/16 04:41:57;;;;;;;6.70;4.72;;;;;;;;;;5080737;28;20060;-78
2022/06/16 04:44:25;;;;;;;18.38;5.25;;;;;;;;;;5074730;28;20074;-77
2022/06/16 04:46:51;;;;;;;11.73;5.25;;;;;;;;;;5091423;28;20044;-74
2022/06/16 04:49:17;;;;;;;10.27;4.70;;;;;;;;;;5091146;28;20020;-72
2022/06/16 04:51:46;;;;;;;5.47;4.30;;;;;;;;;;5083872;28;20119;-71
2022/06/16 04:54:13;;;;;;;6.28;4.65;;;;;;;;;;5089046;28;20081;-70
2022/06/16 04:57:02;;;;;;;6.72;4.63;;;;;;;;;;5091323;28;20032;-70
2022/06/16 04:59:40;;;;;;;8.02;4.40;;;;;;;;;;5091957;28;20068;-69
2022/06/16 05:02:29;;;;;;;8.35;4.32;;;;;;;;;;5081947;28;20046;-70
2022/06/16 05:05:19;;;;;;;7.35;4.68;;;;;;;;;;5084604;28;20048;-71
2022/06/16 05:07:56;;;;;;;7.35;4.13;;;;;;;;;;5091478;28;20032;-69
2022/06/16 05:10:51;;;;;;;5.13;3.70;;;;;;;;;;5093293;28;20036;-70
2022/06/16 05:13:34;;;;;;;7.75;3.60;;;;;;;;;;5092379;28;20035;-70
2022/06/16 05:16:18;;;;;;;4.85;4.18;;;;;;;;;;5093826;28;20042;-70
2022/06/16 05:19:03;;;;;;;7.10;3.83;;;;;;;;;;5094097;28;20051;-73
2022/06/16 05:21:43;;;;;;;7.13;3.97;;;;;;;;;;5092230;28;20412;-70
2022/06/16 05:24:28;;;;;;;7.63;4.13;;;;;;;;;;5077777;28;20115;-70
2022/06/16 05:27:19;;;;;;;9.05;4.25;;;;;;;;;;5070823;28;20120;-70
2022/06/16 05:29:56;;;;;;;19.73;4.88;;;;;;;;;;5072744;28;20040;-70
2022/06/16 05:32:43;;;;;;;8.35;3.85;;;;;;;;;;5066421;28;20516;-69
2022/06/16 05:35:29;;;;;;;12.10;4.32;;;;;;;;;;5072333;28;20037;-70
2022/06/16 05:38:15;;;;;;;8.02;3.85;;;;;;;;;;5080155;28;20104;-69
2022/06/16 05:41:10;;;;;;;10.45;4.57;;;;;;;;;;5091771;28;20094;-70
2022/06/16 05:43:56;;;;;;;4.45;3.97;;;;;;;;;;5072766;28;20403;-70
2022/06/16 05:46:42;;;;;;;9.10;4.80;;;;;;;;;;5062325;28;20090;-70
2022/06/16 05:49:15;;;;;;;10.68;4.38;;;;;;;;;;5073339;28;20045;-70
2022/06/16 05:51:43;;;;;;;9.20;4.18;;;;;;;;;;5071768;28;20032;-76
2022/06/16 05:54:11;;;;;;;6.13;4.13;;;;;;;;;;5073156;28;20048;-73
2022/06/16 05:56:39;;;;;;;6.75;4.22;;;;;;;;;;5088219;28;20510;-74
2022/06/16 05:59:05;;;;;;;6.45;3.70;;;;;;;;;;5071693;28;20036;-79
2022/06/16 06:01:33;;;;;;;6.40;4.00;;;;;;;;;;5088129;28;20391;-78
2022/06/16 06:04:06;;;;;;;8.23;4.72;;;;;;;;;;5073331;28;20082;-74
2022/06/16 06:06:34;;;;;;;6.20;3.97;;;;;;;;;;5071947;28;20033;-81
2022/06/16 06:17:25;;;;;;;9.35;4.18;;;;;;;;;;5088417;28;20028;-83
2022/06/16 06:19:53;;;;;;;6.35;4.22;;;;;;;;;;5089758;28;20128;-83
2022/06/16 06:22:24;;;;;;;9.77;5.15;;;;;;;;;;5098384;28;20475;-80
2022/06/16 06:25:23;;;;;;;9.60;4.72;;;;;;;;;;5083208;28;20074;-77
2022/06/16 06:27:50;;;;;;;8.80;4.90;;;;;;;;;;5072260;28;20067;-71
2022/06/16 06:30:19;;;;;;;7.68;4.93;;;;;;;;;;5071995;28;20375;-72
2022/06/16 06:32:46;;;;;;;11.80;5.70;;;;;;;;;;5073095;28;20028;-71
2022/06/16 06:35:12;;;;;;;8.25;4.85;;;;;;;;;;5086869;28;20035;-71
2022/06/16 06:37:38;;;;;;;7.10;4.57;;;;;;;;;;5092134;28;20044;-73
2022/06/16 06:40:06;;;;;;;9.55;4.57;;;;;;;;;;5090937;28;20023;-73
2022/06/16 06:42:32;;;;;;;7.60;4.50;;;;;;;;;;5092050;28;20122;-73
2022/06/16 06:44:58;;;;;;;4.85;4.03;;;;;;;;;;5092171;28;20034;-72
2022/06/16 06:47:27;;;;;;;7.78;4.00;;;;;;;;;;5092297;28;20383;-72
2022/06/16 06:49:54;;;;;;;8.25;3.78;;;;;;;;;;5092245;28;20066;-72
2022/06/16 06:52:20;;;;;;;9.63;4.20;;;;;;;;;;5091888;28;20020;-70
2022/06/16 06:54:46;;;;;;;8.00;4.13;;;;;;;;;;5091816;28;20131;-73
2022/06/16 06:57:15;;;;;;;7.60;4.38;;;;;;;;;;5091355;28;20103;-72
2022/06/16 06:59:41;;;;;;;9.68;6.78;;;;;;;;;;5092953;28;20027;-71
2022/06/16 07:02:11;;;;;;;11.02;4.47;;;;;;;;;;5091761;28;20485;-71
2022/06/16 07:04:38;;;;;;;7.70;3.50;;;;;;;;;;5091858;28;20036;-71
2022/06/16 07:07:04;;;;;;;8.07;3.75;;;;;;;;;;5091953;28;20340;-71
2022/06/16 07:09:31;;;;;;;5.32;3.97;;;;;;;;;;5091906;28;20055;-71
2022/06/16 07:11:57;;;;;;;5.20;4.30;;;;;;;;;;5091402;28;20024;-71
2022/06/16 07:14:23;;;;;;;6.13;4.03;;;;;;;;;;5091584;28;20043;-71
2022/06/16 07:16:50;;;;;;;9.95;4.57;;;;;;;;;;5091769;28;20155;-70
2022/06/16 07:19:17;;;;;;;6.80;3.75;;;;;;;;;;5091970;28;20432;-71
2022/06/16 07:21:43;;;;;;;6.20;3.83;;;;;;;;;;5091463;28;20101;-71
2022/06/16 07:24:09;;;;;;;7.30;3.53;;;;;;;;;;5088213;28;20097;-71
2022/06/16 07:26:35;;;;;;;9.25;3.92;;;;;;;;;;5080027;28;20408;-71
2022/06/16 07:29:01;;;;;;;5.93;4.10;;;;;;;;;;5071422;28;20060;-69
2022/06/16 07:31:28;;;;;;;6.47;3.60;;;;;;;;;;5071777;28;20039;-71
2022/06/16 07:33:55;;;;;;;4.82;3.55;;;;;;;;;;5071218;28;20044;-69
2022/06/16 07:36:21;;;;;;;6.32;3.80;;;;;;;;;;5071666;28;20024;-72
2022/06/16 07:38:47;;;;;;;8.35;3.97;;;;;;;;;;5071598;28;20040;-74
2022/06/16 07:41:31;;;;;;;7.07;4.10;;;;;;;;;;5076889;28;20116;-79
2022/06/16 07:43:58;;;;;;;7.25;4.20;;;;;;;;;;5094192;28;20089;-79
2022/06/16 07:46:24;;;;;;;6.60;4.20;;;;;;;;;;5095631;28;20059;-71
2022/06/16 07:48:51;;;;;;;7.25;3.70;;;;;;;;;;5088686;28;20066;-78
2022/06/16 07:51:18;;;;;;;8.05;4.28;;;;;;;;;;5083901;28;20016;-77
2022/06/16 07:53:45;;;;;;;5.20;4.07;;;;;;;;;;5091581;28;20042;-82
2022/06/16 07:56:11;;;;;;;6.22;3.90;;;;;;;;;;5095482;28;20024;-82
2022/06/16 07:58:39;;;;;;;8.32;4.20;;;;;;;;;;5093888;28;20051;-78
2022/06/16 08:01:07;;;;;;;4.75;3.88;;;;;;;;;;5095340;28;20054;-79
2022/06/16 08:03:34;;;;;;;7.00;4.07;;;;;;;;;;5111006;28;20478;-77
2022/06/16 08:06:05;;;;;;;5.07;3.90;;;;;;;;;;5078545;28;20039;-76
2022/06/16 08:08:30;;;;;;;5.93;4.18;;;;;;;;;;5074792;28;20039;-72
2022/06/16 08:10:56;;;;;;;7.25;4.38;;;;;;;;;;5075128;28;20016;-74
2022/06/16 08:13:23;;;;;;;18.20;4.40;;;;;;;;;;5074529;28;20066;-74
2022/06/16 08:15:50;;;;;;;7.40;4.50;;;;;;;;;;5074282;28;20024;-70
2022/06/16 08:18:21;;;;;;;8.27;4.30;;;;;;;;;;5074292;28;20356;-72
2022/06/16 08:20:47;;;;;;;6.45;4.00;;;;;;;;;;5072782;28;20123;-71
2022/06/16 08:23:14;;;;;;;6.78;4.07;;;;;;;;;;5074394;28;20384;-72
2022/06/16 08:25:44;;;;;;;14.27;5.30;;;;;;;;;;5075209;28;20028;-73
2022/06/16 08:28:14;;;;;;;8.07;4.20;;;;;;;;;;5095164;28;20501;-72
2022/06/16 08:30:46;;;;;;;11.25;4.70;;;;;;;;;;5094873;28;20020;-72
2022/06/16 08:33:14;;;;;;;11.60;5.30;;;;;;;;;;5079275;28;20040;-70
2022/06/16 08:35:45;;;;;;;7.15;4.10;;;;;;;;;;5074294;28;20036;-70
2022/06/16 08:38:12;;;;;;;7.53;4.32;;;;;;;;;;5074346;28;20127;-71
2022/06/16 08:40:47;;;;;;;6.47;4.20;;;;;;;;;;5074251;28;20024;-71
2022/06/16 08:43:31;;;;;;;6.07;4.75;;;;;;;;;;5074250;28;20471;-72
2022/06/16 08:46:00;;;;;;;5.97;4.57;;;;;;;;;;5085032;28;20106;-72
2022/06/16 08:48:34;;;;;;;6.75;4.50;;;;;;;;;;5078118;28;20040;-72
2022/06/16 08:51:11;;;;;;;7.10;3.85;;;;;;;;;;5073807;28;20068;-71
2022/06/16 08:53:57;;;;;;;5.18;4.05;;;;;;;;;;5087685;28;20066;-71
2022/06/16 08:56:53;;;;;;;5.47;4.40;;;;;;;;;;5092617;28;20066;-71
2022/06/16 09:05:30;;;;;;;7.72;4.80;;;;;;;;;;5073875;28;20044;-71
2022/06/16 09:08:14;;;;;;;7.30;4.15;;;;;;;;;;5073854;28;20031;-72
2022/06/16 09:11:06;;;;;;;7.47;4.35;;;;;;;;;;5073802;28;20036;-71
2022/06/16 09:14:00;;;;;;;5.88;3.90;;;;;;;;;;5068728;28;20044;-71
2022/06/16 09:16:46;;;;;;;5.90;4.20;;;;;;;;;;5073267;28;20036;-73
2022/06/16 09:19:27;;;;;;;8.23;4.82;;;;;;;;;;5073631;28;20395;-75
2022/06/16 09:22:02;;;;;;;6.03;4.55;;;;;;;;;;5073213;28;20155;-71
2022/06/16 09:24:55;;;;;;;5.82;5.13;;;;;;;;;;5072968;28;20479;-72
2022/06/16 09:27:41;;;;;;;6.13;4.88;;;;;;;;;;5072648;28;20039;-77
2022/06/16 09:30:14;;;;;;;5.78;4.95;;;;;;;;;;5065927;28;20052;-73
2022/06/16 09:32:55;;;;;;;;;;;;;;;;;;5073735;28;20043;-78
2022/06/16 09:35:32;;;;;;;7.53;5.30;;;;;;;;;;5073282;28;19916;-71
2022/06/16 09:37:58;;;;;;;6.95;5.40;;;;;;;;;;5072159;28;20063;-77
2022/06/16 09:40:33;;;;;;;7.50;6.00;;;;;;;;;;5072746;28;20055;-70
2022/06/16 09:43:10;;;;;;;6.28;4.40;;;;;;;;;;5073315;28;20032;-71
2022/06/16 09:45:59;;;;;;;5.68;4.55;;;;;;;;;;5073328;28;20037;-70
2022/06/16 09:48:50;;;;;;;6.70;4.72;;;;;;;;;;5072959;28;20025;-72
2022/06/16 09:51:28;;;;;;;5.63;5.00;;;;;;;;;;5072966;28;20033;-70
2022/06/16 09:53:59;;;;;;;5.72;4.65;;;;;;;;;;5071577;28;20356;-71
2022/06/16 09:57:02;;;;;;;9.32;6.75;;;;;;;;;;5070632;28;20040;-71
2022/06/16 09:59:39;;;;;;;;;;;;;;;;;;5063012;28;20135;-70
2022/06/16 10:02:21;;;;;;;7.22;5.85;;;;;;;;;;5071999;28;20003;-71
2022/06/16 10:04:51;;;;;;;8.18;5.85;;;;;;;;;;5073227;28;20043;-71
2022/06/16 10:07:41;;;;;;;8.93;5.63;;;;;;;;;;5073338;28;20036;-70
2022/06/16 10:10:24;;;;;;;6.60;5.70;;;;;;;;;;5073177;28;20033;-70
2022/06/16 10:13:09;;;;;;;7.20;5.27;;;;;;;;;;5072860;28;20033;-71
2022/06/16 10:16:10;;;;;;;15.98;5.22;;;;;;;;;;5072471;28;20060;-71
2022/06/16 10:18:36;;;;;;;18.08;6.03;;;;;;;;;;5011011;28;20034;-71
2022/06/16 10:21:07;;;;;;;12.40;6.13;;;;;;;;;;5059707;28;20033;-71
2022/06/16 10:23:57;;;;;;;11.30;5.75;;;;;;;;;;5072529;28;20436;-71
2022/06/16 10:26:24;;;;;;;23.08;6.10;;;;;;;;;;5072744;28;20028;-72
2022/06/16 10:29:07;;;;;;;15.07;6.38;;;;;;;;;;5072495;28;20028;-71
2022/06/16 10:31:40;;;;;;;6.13;4.75;;;;;;;;;;5072371;28;20071;-71
2022/06/16 10:34:25;;;;;;;;;;;;;;;;;;5072838;28;20044;-70
2022/06/16 10:37:10;;;;;;;13.25;6.03;;;;;;;;;;5072319;28;19924;-71
2022/06/16 10:39:44;;;;;;;6.70;4.90;;;;;;;;;;5072449;28;20033;-70
2022/06/16 10:42:24;;;;;;;10.00;5.43;;;;;;;;;;5072594;28;20035;-71
2022/06/16 10:45:23;;;;;;;7.07;5.30;;;;;;;;;;5072629;28;20475;-70
2022/06/16 10:48:00;;;;;;;7.72;5.05;;;;;;;;;;5072436;28;20028;-70
2022/06/16 10:50:42;;;;;;;8.82;5.28;;;;;;;;;;5072432;28;20476;-69
2022/06/16 10:53:32;;;;;;;5.95;4.50;;;;;;;;;;5072533;28;20364;-71
2022/06/16 10:56:07;;;;;;;8.70;5.00;;;;;;;;;;5072342;28;20262;-70
2022/06/16 10:58:44;;;;;;;11.55;6.00;;;;;;;;;;5072778;28;20052;-71
2022/06/16 11:01:16;;;;;;;8.80;4.60;;;;;;;;;;5072637;28;20035;-71
2022/06/16 11:04:04;;;;;;;6.05;4.75;;;;;;;;;;5072542;28;20048;-73
2022/06/16 11:06:30;;;;;;;9.57;4.75;;;;;;;;;;5072134;28;20040;-70
2022/06/16 11:09:03;;;;;;;10.30;4.78;;;;;;;;;;5071915;28;20070;-73
2022/06/16 11:11:33;;;;;;;7.18;4.45;;;;;;;;;;5071120;28;20074;-74
2022/06/16 11:14:02;;;;;;;8.70;4.05;;;;;;;;;;5072169;28;20037;-78
2022/06/16 11:16:31;;;;;;;8.45;4.03;;;;;;;;;;5072258;28;20036;-76
2022/06/16 11:18:59;;;;;;;8.48;4.20;;;;;;;;;;5078849;28;20032;-72
2022/06/16 11:21:29;;;;;;;10.02;4.32;;;;;;;;;;5084718;28;20119;-70
2022/06/16 11:23:59;;;;;;;7.13;4.25;;;;;;;;;;5075987;28;20032;-72
2022/06/16 11:26:34;;;;;;;5.18;3.65;;;;;;;;;;5086719;28;20428;-70
2022/06/16 11:29:11;;;;;;;8.00;4.38;;;;;;;;;;5078097;28;20506;-72
2022/06/16 11:31:44;;;;;;;6.65;3.83;;;;;;;;;;5073211;28;20032;-72
2022/06/16 11:34:19;;;;;;;9.52;4.40;;;;;;;;;;5081608;28;20032;-71
2022/06/16 11:37:14;;;;;;;6.57;4.55;;;;;;;;;;5090827;28;20082;-70
2022/06/16 11:40:11;;;;;;;6.88;4.35;;;;;;;;;;5086871;28;20035;-69
2022/06/16 11:43:01;;;;;;;6.97;4.03;;;;;;;;;;5088253;28;20035;-74
2022/06/16 11:45:40;;;;;;;7.60;4.00;;;;;;;;;;5071863;28;20056;-72
2022/06/16 11:48:19;;;;;;;9.57;5.20;;;;;;;;;;5087664;28;20034;-76
2022/06/16 11:51:00;;;;;;;7.35;5.25;;;;;;;;;;5091999;28;20032;-72
2022/06/16 11:54:04;;;;;;;6.20;3.80;;;;;;;;;;5089934;28;20123;-71
2022/06/16 11:56:48;;;;;;;5.70;3.72;;;;;;;;;;5068942;28;20115;-71
2022/06/16 11:59:38;;;;;;;;;;;;;;;;;;5071548;28;20059;-74
2022/06/16 12:02:46;;;;;;;6.88;3.60;;;;;;;;;;5071354;28;19923;-71
2022/06/16 12:05:33;;;;;;;7.90;4.20;;;;;;;;;;5071356;28;20086;-71
2022/06/16 12:08:29;;;;;;;8.18;4.38;;;;;;;;;;5088912;28;20054;-71
2022/06/16 12:11:12;;;;;;;8.52;5.32;;;;;;;;;;5112155;28;20036;-73
2022/06/16 12:13:56;;;;;;;9.15;6.15;;;;;;;;;;5103854;28;20066;-76
2022/06/16 12:16:52;;;;;;;16.70;10.63;;;;;;;;;;5089287;28;20032;-73
2022/06/16 12:19:33;;;;;;;6.50;5.07;;;;;;;;;;5090732;28;20032;-70
2022/06/16 12:22:09;;;;;;;8.18;6.07;;;;;;;;;;5090241;28;20452;-73
2022/06/16 12:24:59;;;;;;;7.88;5.35;;;;;;;;;;5090872;28;20036;-72
2022/06/16 12:27:49;;;;;;;9.23;5.93;;;;;;;;;;5091164;28;20407;-76
2022/06/16 12:30:25;;;;;;;11.98;8.75;;;;;;;;;;5074018;28;20536;-74
2022/06/16 12:33:06;;;;;;;7.28;5.68;;;;;;;;;;5090399;28;20111;-72
2022/06/16 12:35:41;;;;;;;5.57;4.50;;;;;;;;;;5085761;28;20124;-72
2022/06/16 12:38:22;;;;;;;9.15;5.18;;;;;;;;;;5074212;28;20039;-71
2022/06/16 12:41:03;;;;;;;5.40;4.55;;;;;;;;;;5082209;28;20032;-75
2022/06/16 12:43:37;;;;;;;7.00;4.95;;;;;;;;;;5086696;28;20398;-73
2022/06/16 12:46:06;;;;;;;5.93;5.00;;;;;;;;;;5092464;28;20478;-72
2022/06/16 12:48:50;;;;;;;6.97;5.90;;;;;;;;;;5093890;28;20039;-72
2022/06/16 12:51:21;;;;;;;8.38;4.53;;;;;;;;;;5093973;28;20032;-74
2022/06/16 12:53:49;;;;;;;5.50;4.72;;;;;;;;;;5093972;28;20103;-73
2022/06/16 12:56:53;;;;;;;5.82;4.80;;;;;;;;;;5090140;28;20027;-79
2022/06/16 12:59:28;;;;;;;9.50;5.25;;;;;;;;;;5092502;28;20090;-75
2022/06/16 13:01:57;;;;;;;5.75;5.00;;;;;;;;;;5092640;28;20048;-74
2022/06/16 13:04:29;;;;;;;7.47;5.47;;;;;;;;;;5092918;28;20020;-74
2022/06/16 13:06:57;;;;;;;6.25;5.07;;;;;;;;;;5093443;28;20027;-73
2022/06/16 13:09:24;;;;;;;9.95;5.70;;;;;;;;;;5093443;28;20115;-75
2022/06/16 13:11:58;;;;;;;8.38;5.10;;;;;;;;;;5077725;28;20070;-73
2022/06/16 13:14:39;;;;;;;5.82;4.60;;;;;;;;;;5072743;28;20060;-74
2022/06/16 13:17:11;;;;;;;7.55;5.00;;;;;;;;;;5073031;28;20064;-74
2022/06/16 13:19:57;;;;;;;9.20;5.32;;;;;;;;;;5073274;28;20032;-72
2022/06/16 13:23:10;;;;;;;6.05;4.60;;;;;;;;;;5073554;28;20048;-74
2022/06/16 13:25:54;;;;;;;7.85;4.85;;;;;;;;;;5071888;28;20048;-71
2022/06/16 13:28:37;;;;;;;5.75;4.80;;;;;;;;;;5082645;28;20032;-73
2022/06/16 13:31:22;;;;;;;;;;;;;;;;;;5073702;28;20036;-71
2022/06/16 13:34:08;;;;;;;6.20;4.75;;;;;;;;;;5074106;28;19920;-71
2022/06/16 13:36:34;;;;;;;6.63;4.72;;;;;;;;;;5112994;28;20043;-69
2022/06/16 13:39:03;;;;;;;8.82;5.30;;;;;;;;;;5111222;28;20023;-70
2022/06/16 13:41:45;;;;;;;10.98;4.40;;;;;;;;;;5086188;28;20080;-71
2022/06/16 13:44:19;;;;;;;4.63;3.80;;;;;;;;;;5099165;28;20050;-75
2022/06/16 13:46:57;;;;;;;6.63;3.92;;;;;;;;;;5091484;28;20036;-71
2022/06/16 13:49:32;;;;;;;5.35;4.20;;;;;;;;;;5092338;28;20158;-71
2022/06/16 13:52:09;;;;;;;7.32;4.65;;;;;;;;;;5092855;28;20028;-71
2022/06/16 13:54:36;;;;;;;7.53;4.32;;;;;;;;;;5090877;28;20088;-72
2022/06/16 13:57:20;;;;;;;6.05;4.57;;;;;;;;;;5091865;28;20534;-72
2022/06/16 13:59:57;;;;;;;6.20;4.60;;;;;;;;;;5093499;28;20065;-70
2022/06/16 14:02:25;;;;;;;13.32;4.47;;;;;;;;;;5093664;28;20456;-70
2022/06/16 14:05:06;;;;;;;6.15;4.03;;;;;;;;;;5092156;28;20028;-73
2022/06/16 14:07:36;;;;;;;5.53;4.25;;;;;;;;;;5093589;28;20035;-71
2022/06/16 14:10:08;;;;;;;5.13;4.63;;;;;;;;;;5085478;28;20020;-71
2022/06/16 14:12:45;;;;;;;5.27;4.00;;;;;;;;;;5071277;28;20043;-71
2022/06/16 14:15:12;;;;;;;7.50;4.70;;;;;;;;;;5073171;28;20357;-72
2022/06/16 14:17:47;;;;;;;6.53;4.28;;;;;;;;;;5073463;28;20024;-71
2022/06/16 14:20:25;;;;;;;8.90;4.90;;;;;;;;;;5072826;28;20447;-71
2022/06/16 14:22:57;;;;;;;5.93;4.40;;;;;;;;;;5073197;28;20028;-71
2022/06/16 14:25:38;;;;;;;8.02;5.45;;;;;;;;;;5073009;28;20040;-71
2022/06/16 14:28:12;;;;;;;7.18;4.90;;;;;;;;;;5073054;28;20032;-70
2022/06/16 14:30:46;;;;;;;7.03;4.75;;;;;;;;;;5073016;28;20032;-71
2022/06/16 14:33:30;;;;;;;8.15;5.00;;;;;;;;;;5072776;28;20040;-70
2022/06/16 14:36:08;;;;;;;7.97;5.00;;;;;;;;;;5072752;28;20055;-71
2022/06/16 14:38:36;;;;;;;6.07;4.70;;;;;;;;;;5073070;28;20039;-71
2022/06/16 14:41:14;;;;;;;5.20;4.70;;;;;;;;;;5071663;28;20025;-75
2022/06/16 14:44:01;;;;;;;6.53;4.90;;;;;;;;;;5072760;28;20033;-70
2022/06/16 14:46:38;;;;;;;5.13;4.63;;;;;;;;;;5073178;28;20036;-72
2022/06/16 14:49:07;;;;;;;8.23;5.60;;;;;;;;;;5072610;28;20084;-70
2022/06/16 14:51:38;;;;;;;7.05;5.10;;;;;;;;;;5072856;28;20028;-71
2022/06/16 14:54:14;;;;;;;7.25;5.25;;;;;;;;;;5072778;28;20033;-70
2022/06/16 14:56:49;;;;;;;5.70;4.32;;;;;;;;;;5071505;28;20040;-70
2022/06/16 14:59:18;;;;;;;5.85;4.18;;;;;;;;;;5072885;28;20083;-72
2022/06/16 15:01:47;;;;;;;6.07;4.45;;;;;;;;;;5073077;28;20042;-71
2022/06/16 15:04:15;;;;;;;6.00;4.40;;;;;;;;;;5072653;28;20025;-69
2022/06/16 15:06:43;;;;;;;5.45;4.30;;;;;;;;;;5072673;28;20035;-72
2022/06/16 15:09:14;;;;;;;7.50;4.38;;;;;;;;;;5072525;28;20089;-70
2022/06/16 15:11:42;;;;;;;4.75;3.70;;;;;;;;;;5072668;28;20036;-70
2022/06/16 15:14:12;;;;;;;8.93;4.22;;;;;;;;;;5072630;28;20423;-70
2022/06/16 15:19:32;;;;;;;7.93;4.20;;;;;;;;;;5072663;28;20037;-72
2022/06/16 15:21:59;;;;;;;6.65;4.43;;;;;;;;;;5072445;28;20603;-72
2022/06/16 15:24:42;;;;;;;6.28;3.90;;;;;;;;;;5072458;28;20063;-69
2022/06/16 15:27:11;;;;;;;4.88;4.43;;;;;;;;;;5072378;28;20067;-71
2022/06/16 15:29:45;;;;;;;5.35;4.20;;;;;;;;;;5072449;28;20438;-71
2022/06/16 15:38:00;;;;;;;7.57;4.45;;;;;;;;;;5072184;28;20033;-72
2022/06/16 15:40:33;;;;;;;6.30;4.20;;;;;;;;;;5072249;28;20101;-70
2022/06/16 15:42:59;;;;;;;5.38;4.38;;;;;;;;;;5072250;28;20110;-74
2022/06/16 15:45:25;;;;;;;7.35;4.55;;;;;;;;;;5072272;28;20410;-71
2022/06/16 15:47:51;;;;;;;4.68;4.03;;;;;;;;;;5072515;28;20162;-70
2022/06/16 15:50:24;;;;;;;7.18;4.60;;;;;;;;;;5072363;28;20025;-71
2022/06/16 15:53:00;;;;;;;7.68;4.30;;;;;;;;;;5072063;28;20411;-72
2022/06/16 15:55:29;;;;;;;7.50;3.95;;;;;;;;;;5072248;28;20504;-71
2022/06/16 15:57:58;;;;;;;5.57;4.25;;;;;;;;;;5072233;28;20485;-72
2022/06/16 16:00:30;;;;;;;8.13;4.32;;;;;;;;;;5072625;28;20029;-71